Time;durP1;ratioP1;P1;durP2;ratioP2;P2;SDS_P1;SDS_P2;PMS_P1;PMS_P2;Temp;Humidity;BMP_temperature;BMP_pressure;BME280_temperature;BME280_humidity;BME280_pressure;Samples;Min_cycle;Max_cycle;Signal;HPM_P1;HPM_P2
2021/10/31 00:01:59;;;;;;;4.85;2.25;;;10.00;73.80;;;;;;4987507;28;20061;-78
2021/10/31 00:04:26;;;;;;;5.13;2.20;;;10.10;74.00;;;;;;4985955;28;20026;-80
2021/10/31 00:06:52;;;;;;;5.72;2.33;;;10.10;74.00;;;;;;4988460;28;20037;-79
2021/10/31 00:09:18;;;;;;;3.75;2.35;;;10.10;74.00;;;;;;4986724;28;20042;-79
2021/10/31 00:11:44;;;;;;;4.75;2.72;;;10.10;74.00;;;;;;4987044;28;20508;-80
2021/10/31 00:14:10;;;;;;;3.97;2.00;;;10.10;74.00;;;;;;4987366;28;20129;-80
2021/10/31 00:16:36;;;;;;;4.20;2.88;;;10.10;74.00;;;;;;5002392;28;20057;-81
2021/10/31 00:19:03;;;;;;;4.75;2.15;;;10.10;74.00;;;;;;4970729;28;20050;-81
2021/10/31 00:21:29;;;;;;;5.88;2.20;;;10.10;74.10;;;;;;4987997;28;20034;-77
2021/10/31 00:23:56;;;;;;;3.00;1.60;;;10.10;74.00;;;;;;4986180;28;20406;-84
2021/10/31 00:26:22;;;;;;;3.30;1.80;;;10.20;74.20;;;;;;4987030;28;20278;-83
2021/10/31 00:28:49;;;;;;;6.10;2.08;;;10.20;74.20;;;;;;4986341;28;20509;-84
2021/10/31 00:31:15;;;;;;;3.60;1.58;;;10.20;74.20;;;;;;4987154;28;20034;-78
2021/10/31 00:33:41;;;;;;;4.22;1.40;;;10.20;74.20;;;;;;4987197;28;20495;-86
2021/10/31 00:36:07;;;;;;;3.20;1.58;;;10.20;74.20;;;;;;4987579;28;20088;-83
2021/10/31 00:38:33;;;;;;;4.32;2.95;;;10.20;74.20;;;;;;4992094;28;20717;-79
2021/10/31 00:40:59;;;;;;;3.58;2.22;;;10.20;74.20;;;;;;5006498;28;20026;-80
2021/10/31 00:43:25;;;;;;;2.38;1.13;;;10.20;74.20;;;;;;5007214;28;20033;-83
2021/10/31 00:45:51;;;;;;;4.10;1.40;;;10.20;74.20;;;;;;5007102;28;20324;-87
2021/10/31 00:48:17;;;;;;;5.25;1.67;;;10.30;74.50;;;;;;4985781;28;20034;-82
2021/10/31 00:50:48;;;;;;;4.38;1.35;;;10.30;74.50;;;;;;4985775;28;20497;-85
2021/10/31 00:53:14;;;;;;;3.03;1.30;;;10.30;74.50;;;;;;4991795;28;20492;-84
2021/10/31 00:55:40;;;;;;;3.40;1.27;;;10.30;74.50;;;;;;5006050;28;20061;-84
2021/10/31 00:58:10;;;;;;;3.22;1.15;;;10.30;74.50;;;;;;5020640;28;20476;-86
2021/10/31 01:00:37;;;;;;;4.43;0.85;;;10.40;74.70;;;;;;4986826;28;20501;-85
2021/10/31 01:03:03;;;;;;;3.40;1.10;;;10.40;74.70;;;;;;4987205;28;20030;-85
2021/10/31 01:05:38;;;;;;;3.13;0.90;;;10.40;74.70;;;;;;4990949;28;20405;-84
2021/10/31 01:08:11;;;;;;;2.50;0.93;;;10.40;74.80;;;;;;4991656;28;20038;-84
2021/10/31 01:10:44;;;;;;;5.95;1.30;;;10.40;74.80;;;;;;4991326;28;20101;-84
2021/10/31 01:13:22;;;;;;;;;;;10.40;74.80;;;;;;4993467;28;20409;-84
2021/10/31 01:16:06;;;;;;;3.70;1.10;;;10.50;74.90;;;;;;5010431;28;20316;-81
2021/10/31 01:18:51;;;;;;;5.88;1.00;;;10.50;74.80;;;;;;4979204;28;20026;-82
2021/10/31 01:21:52;;;;;;;5.35;1.10;;;10.50;74.80;;;;;;5011114;28;20030;-84
2021/10/31 01:24:54;;;;;;;3.97;0.90;;;10.50;74.80;;;;;;4997102;28;20494;-83
2021/10/31 01:27:38;;;;;;;4.93;0.90;;;10.60;75.00;;;;;;4990770;28;20724;-82
2021/10/31 01:30:15;;;;;;;4.95;1.08;;;10.60;75.00;;;;;;5006862;28;20034;-83
2021/10/31 01:33:29;;;;;;;3.05;0.90;;;10.70;75.20;;;;;;5010188;28;20034;-82
2021/10/31 01:36:17;;;;;;;3.60;1.10;;;10.60;75.00;;;;;;4953178;28;20074;-80
2021/10/31 01:39:04;;;;;;;5.95;1.00;;;10.70;75.20;;;;;;4991959;28;20081;-80
2021/10/31 01:42:05;;;;;;;6.15;1.02;;;10.70;75.10;;;;;;4990740;28;20212;-81
2021/10/31 01:44:47;;;;;;;2.97;1.20;;;10.70;75.20;;;;;;5004619;28;20034;-80
2021/10/31 01:47:57;;;;;;;5.10;1.38;;;10.70;75.10;;;;;;4990226;28;20027;-80
2021/10/31 01:50:39;;;;;;;3.65;0.80;;;10.70;75.10;;;;;;4929570;29;20512;-82
2021/10/31 01:53:11;;;;;;;7.78;1.35;;;10.70;75.10;;;;;;4967249;28;20038;-82
2021/10/31 01:55:50;;;;;;;2.88;0.95;;;10.70;75.10;;;;;;4989702;28;20121;-82
2021/10/31 01:58:20;;;;;;;4.85;1.08;;;10.70;75.10;;;;;;4989581;28;20403;-84
2021/10/31 02:00:48;;;;;;;8.00;1.88;;;10.80;75.30;;;;;;4988536;28;20496;-83
2021/10/31 02:03:18;;;;;;;3.25;1.02;;;10.80;75.30;;;;;;4989996;28;20505;-79
2021/10/31 02:05:44;;;;;;;5.15;1.30;;;10.80;75.30;;;;;;4990395;28;20439;-81
2021/10/31 02:08:11;;;;;;;5.85;1.10;;;10.80;75.30;;;;;;4989809;28;20057;-82
2021/10/31 02:10:46;;;;;;;3.95;1.05;;;10.80;75.40;;;;;;4990500;28;20031;-80
2021/10/31 02:13:14;;;;;;;3.50;0.80;;;10.80;75.40;;;;;;4989759;28;20046;-78
2021/10/31 02:15:43;;;;;;;8.60;1.08;;;10.80;75.40;;;;;;4988767;28;20042;-78
2021/10/31 02:18:14;;;;;;;6.18;0.90;;;10.80;75.90;;;;;;4989631;28;20076;-77
2021/10/31 02:20:42;;;;;;;4.97;0.90;;;10.80;75.40;;;;;;4989284;28;20026;-80
2021/10/31 02:23:09;;;;;;;5.78;1.13;;;10.90;75.60;;;;;;4992656;28;20419;-81
2021/10/31 02:25:35;;;;;;;3.75;0.90;;;10.90;75.50;;;;;;5008811;28;20030;-80
2021/10/31 02:28:03;;;;;;;8.35;1.60;;;10.90;75.60;;;;;;5008572;28;20517;-81
2021/10/31 02:30:29;;;;;;;4.50;0.70;;;10.90;75.50;;;;;;4989178;28;20124;-82
2021/10/31 02:32:55;;;;;;;4.45;0.65;;;10.90;75.50;;;;;;4970985;28;20033;-82
2021/10/31 02:35:22;;;;;;;2.45;0.80;;;10.90;75.50;;;;;;4990315;28;20069;-81
2021/10/31 02:37:50;;;;;;;3.53;0.90;;;11.00;75.70;;;;;;4991771;28;20030;-79
2021/10/31 02:40:18;;;;;;;4.35;0.80;;;11.00;75.70;;;;;;5002511;28;20037;-79
2021/10/31 02:42:45;;;;;;;2.70;0.75;;;10.90;75.50;;;;;;5010241;28;20076;-80
2021/10/31 02:45:12;;;;;;;5.40;1.33;;;11.00;75.70;;;;;;5007718;28;20068;-79
2021/10/31 02:48:01;;;;;;;6.10;1.15;;;11.00;75.70;;;;;;4995138;28;20038;-80
2021/10/31 02:50:35;;;;;;;5.63;1.75;;;11.00;75.70;;;;;;5007249;28;20042;-83
2021/10/31 02:53:04;;;;;;;4.18;1.52;;;11.00;75.70;;;;;;4974610;28;20031;-80
2021/10/31 02:55:33;;;;;;;3.38;1.23;;;11.00;75.70;;;;;;4974027;28;20387;-78
2021/10/31 02:58:08;;;;;;;2.70;0.77;;;11.00;75.70;;;;;;4983824;28;20029;-80
2021/10/31 03:00:38;;;;;;;6.88;0.82;;;11.10;76.00;;;;;;5011585;28;20490;-79
2021/10/31 03:03:06;;;;;;;2.08;0.77;;;11.10;75.90;;;;;;5013341;28;20033;-79
2021/10/31 03:05:32;;;;;;;6.07;1.05;;;11.00;75.70;;;;;;5012813;28;20097;-78
2021/10/31 03:07:58;;;;;;;10.77;1.10;;;11.10;75.90;;;;;;5012428;28;20045;-81
2021/10/31 03:10:24;;;;;;;3.42;0.75;;;11.10;75.90;;;;;;5013035;28;20057;-82
2021/10/31 03:12:50;;;;;;;4.57;1.00;;;11.10;76.00;;;;;;5012474;28;20034;-80
2021/10/31 03:15:18;;;;;;;3.28;0.73;;;11.20;76.20;;;;;;5012729;28;20057;-82
2021/10/31 03:17:44;;;;;;;4.03;0.90;;;11.20;76.20;;;;;;4996129;28;20492;-81
2021/10/31 03:20:10;;;;;;;5.25;0.98;;;11.20;76.20;;;;;;4992931;28;20072;-83
2021/10/31 03:22:37;;;;;;;6.28;1.08;;;11.20;76.20;;;;;;4992989;28;20486;-85
2021/10/31 03:25:03;;;;;;;10.85;1.70;;;11.20;76.20;;;;;;4992590;28;20030;-84
2021/10/31 03:27:29;;;;;;;8.13;1.10;;;11.30;76.40;;;;;;4991377;28;20026;-81
2021/10/31 03:29:55;;;;;;;6.30;1.17;;;11.30;76.40;;;;;;4992576;28;20390;-80
2021/10/31 03:32:22;;;;;;;5.72;1.25;;;11.40;76.50;;;;;;4992256;28;20031;-83
2021/10/31 03:34:48;;;;;;;4.60;0.98;;;11.40;76.50;;;;;;4992969;28;20131;-85
2021/10/31 03:37:14;;;;;;;5.63;1.20;;;11.40;76.60;;;;;;4992916;28;20022;-84
2021/10/31 03:39:40;;;;;;;6.10;1.40;;;11.40;76.50;;;;;;4993274;28;20509;-85
2021/10/31 03:42:06;;;;;;;5.57;0.80;;;11.40;76.50;;;;;;4992537;28;20429;-83
2021/10/31 03:44:47;;;;;;;3.15;0.70;;;11.40;76.50;;;;;;4991127;28;20053;-84
2021/10/31 03:47:17;;;;;;;5.28;1.42;;;11.50;76.70;;;;;;4993171;28;20037;-83
2021/10/31 03:49:46;;;;;;;8.82;1.35;;;11.50;76.70;;;;;;4975270;28;20498;-77
2021/10/31 03:52:12;;;;;;;8.50;1.88;;;11.60;76.90;;;;;;4992733;28;20049;-80
2021/10/31 03:54:38;;;;;;;5.65;2.15;;;11.50;76.70;;;;;;4992625;28;20092;-81
2021/10/31 03:57:05;;;;;;;5.55;0.75;;;11.60;76.90;;;;;;4990962;28;20088;-80
2021/10/31 03:59:31;;;;;;;8.75;1.70;;;11.60;76.90;;;;;;4992150;28;20093;-81
2021/10/31 04:01:57;;;;;;;8.00;1.10;;;11.60;76.90;;;;;;4992717;28;20030;-82
2021/10/31 04:04:23;;;;;;;8.05;1.38;;;11.70;77.10;;;;;;4992684;28;20069;-83
2021/10/31 04:06:49;;;;;;;5.68;1.08;;;11.60;76.90;;;;;;4992657;28;20084;-84
2021/10/31 04:09:15;;;;;;;4.53;1.63;;;11.70;77.10;;;;;;4992722;28;20050;-83
2021/10/31 04:11:40;;;;;;;4.00;1.23;;;11.70;77.10;;;;;;4991759;28;20474;-82
2021/10/31 04:14:06;;;;;;;6.78;1.65;;;11.70;77.10;;;;;;4992239;28;20042;-86
2021/10/31 04:16:33;;;;;;;6.60;1.45;;;11.80;77.30;;;;;;4991692;28;20088;-85
2021/10/31 04:18:59;;;;;;;4.10;1.52;;;11.80;77.30;;;;;;4992427;28;20116;-83
2021/10/31 04:21:25;;;;;;;4.93;1.52;;;11.80;77.30;;;;;;4992421;28;20103;-82
2021/10/31 04:23:51;;;;;;;3.33;0.88;;;11.80;77.30;;;;;;4991909;28;20041;-82
2021/10/31 04:26:17;;;;;;;8.10;1.73;;;11.80;77.30;;;;;;4991705;28;20034;-82
2021/10/31 04:28:43;;;;;;;7.13;1.10;;;11.90;77.50;;;;;;4991654;28;20046;-83
2021/10/31 04:31:09;;;;;;;4.35;0.95;;;11.90;77.50;;;;;;4991734;28;20440;-84
2021/10/31 04:33:36;;;;;;;6.03;1.20;;;11.90;77.50;;;;;;4992260;28;20049;-86
2021/10/31 04:36:03;;;;;;;5.95;1.00;;;11.90;77.60;;;;;;4992238;28;20031;-84
2021/10/31 04:38:32;;;;;;;6.43;1.38;;;11.90;77.60;;;;;;4991649;28;20030;-87
2021/10/31 04:40:59;;;;;;;6.60;1.85;;;11.90;77.60;;;;;;4991538;28;20034;-85
2021/10/31 04:43:26;;;;;;;3.50;0.77;;;12.00;77.90;;;;;;4991932;28;20030;-86
2021/10/31 04:45:54;;;;;;;5.40;1.30;;;12.00;77.90;;;;;;4991602;28;20129;-85
2021/10/31 04:48:23;;;;;;;7.40;1.50;;;12.00;77.90;;;;;;4972321;28;20525;-85
2021/10/31 04:50:50;;;;;;;5.03;1.83;;;12.00;78.00;;;;;;4972056;28;20073;-86
2021/10/31 04:53:16;;;;;;;5.70;1.38;;;12.00;78.00;;;;;;4972319;28;20537;-85
2021/10/31 04:55:42;;;;;;;9.48;1.60;;;12.10;78.30;;;;;;4971061;28;20034;-82
2021/10/31 04:58:10;;;;;;;7.40;1.67;;;12.10;78.30;;;;;;4970368;28;20039;-82
2021/10/31 05:00:36;;;;;;;6.70;1.40;;;12.10;78.40;;;;;;4970931;28;20031;-83
2021/10/31 05:03:03;;;;;;;8.38;1.45;;;12.10;78.40;;;;;;4972947;28;20073;-88
2021/10/31 05:05:30;;;;;;;6.70;1.20;;;12.10;78.50;;;;;;4972833;28;20395;-84
2021/10/31 05:07:56;;;;;;;9.18;1.80;;;12.10;78.50;;;;;;4971989;28;20070;-87
2021/10/31 05:10:24;;;;;;;8.75;1.35;;;12.10;78.60;;;;;;4972635;28;20042;-85
2021/10/31 05:12:50;;;;;;;8.35;2.15;;;12.20;78.80;;;;;;4986430;28;20084;-84
2021/10/31 05:15:18;;;;;;;6.47;1.25;;;12.20;78.90;;;;;;5010787;28;20060;-84
2021/10/31 05:17:45;;;;;;;5.93;2.42;;;12.20;78.90;;;;;;4995813;28;20034;-81
2021/10/31 05:20:12;;;;;;;4.13;0.80;;;12.20;79.00;;;;;;4991388;28;20418;-83
2021/10/31 05:22:39;;;;;;;6.18;1.27;;;12.20;79.00;;;;;;4991086;28;20050;-83
2021/10/31 05:25:07;;;;;;;5.85;1.33;;;12.30;79.20;;;;;;4990057;28;20038;-82
2021/10/31 05:27:34;;;;;;;9.38;1.55;;;12.30;79.30;;;;;;4992111;28;20053;-78
2021/10/31 05:30:00;;;;;;;8.27;1.45;;;12.30;79.40;;;;;;4991408;28;20375;-88
2021/10/31 05:32:33;;;;;;;7.13;1.25;;;12.30;79.40;;;;;;4990928;28;20030;-84
2021/10/31 05:34:59;;;;;;;6.32;1.30;;;12.30;80.00;;;;;;4991524;28;20030;-85
2021/10/31 05:37:33;;;;;;;3.25;0.93;;;12.30;79.50;;;;;;4991509;28;20038;-79
2021/10/31 05:40:00;;;;;;;3.63;0.73;;;12.30;79.60;;;;;;4990307;28;20121;-81
2021/10/31 05:42:26;;;;;;;2.10;0.60;;;12.30;79.70;;;;;;4991548;28;20109;-79
2021/10/31 05:44:51;;;;;;;5.85;0.70;;;12.40;80.10;;;;;;4990230;28;20121;-79
2021/10/31 05:47:17;;;;;;;2.92;0.43;;;12.40;80.20;;;;;;4988495;28;20038;-87
2021/10/31 05:49:44;;;;;;;1.58;0.50;;;12.40;80.40;;;;;;4989122;28;20050;-83
2021/10/31 05:52:10;;;;;;;1.60;0.38;;;12.40;80.60;;;;;;4992295;28;20050;-80
2021/10/31 05:54:36;;;;;;;1.63;0.45;;;12.40;80.70;;;;;;4991577;28;20076;-81
2021/10/31 05:57:02;;;;;;;2.65;0.38;;;12.40;80.90;;;;;;4990767;28;20038;-81
2021/10/31 05:59:28;;;;;;;2.05;0.43;;;12.40;81.00;;;;;;4990142;28;20482;-85
2021/10/31 06:01:54;;;;;;;0.40;0.20;;;12.40;81.20;;;;;;4991081;28;20034;-84
2021/10/31 06:04:20;;;;;;;2.47;0.35;;;12.40;81.30;;;;;;4994293;28;20424;-85
2021/10/31 06:06:47;;;;;;;1.27;0.40;;;12.50;81.60;;;;;;5008326;28;20037;-82
2021/10/31 06:09:13;;;;;;;2.60;0.40;;;12.50;81.80;;;;;;4992980;28;20521;-81
2021/10/31 06:11:39;;;;;;;3.75;0.60;;;12.50;81.90;;;;;;4989566;28;20241;-83
2021/10/31 06:14:05;;;;;;;2.53;0.80;;;12.50;82.10;;;;;;5008601;28;20034;-81
2021/10/31 06:16:31;;;;;;;2.72;0.40;;;12.50;82.20;;;;;;5003719;28;20063;-85
2021/10/31 06:18:57;;;;;;;3.05;0.60;;;12.50;82.30;;;;;;4989429;28;20125;-81
2021/10/31 06:21:23;;;;;;;2.70;0.80;;;12.50;82.40;;;;;;4989294;28;20133;-82
2021/10/31 06:23:49;;;;;;;4.60;0.63;;;12.50;82.60;;;;;;4989260;28;20040;-82
2021/10/31 06:26:15;;;;;;;3.67;0.90;;;12.50;82.60;;;;;;5004369;28;20031;-83
2021/10/31 06:28:41;;;;;;;6.05;1.10;;;12.50;82.80;;;;;;4989494;28;20049;-82
2021/10/31 06:31:07;;;;;;;5.07;0.85;;;12.60;83.00;;;;;;4965732;28;20485;-82
2021/10/31 06:33:33;;;;;;;4.45;1.05;;;12.60;83.10;;;;;;4983460;28;20489;-84
2021/10/31 06:35:59;;;;;;;4.63;1.08;;;12.60;83.30;;;;;;5008488;28;20551;-82
2021/10/31 06:38:25;;;;;;;5.93;0.85;;;12.60;83.30;;;;;;5008475;28;20026;-83
2021/10/31 06:40:51;;;;;;;3.70;0.85;;;12.60;83.40;;;;;;5008910;28;20065;-85
2021/10/31 06:43:17;;;;;;;2.55;0.85;;;12.60;83.50;;;;;;4989809;28;20902;-85
2021/10/31 06:45:44;;;;;;;11.35;1.17;;;12.60;83.60;;;;;;4986847;28;20295;-81
2021/10/31 06:48:11;;;;;;;4.47;0.77;;;12.60;83.70;;;;;;4988274;28;20082;-86
2021/10/31 06:50:37;;;;;;;4.97;1.75;;;12.60;83.80;;;;;;4987843;28;20092;-86
2021/10/31 06:53:03;;;;;;;5.13;1.15;;;12.60;83.80;;;;;;4987826;28;20038;-83
2021/10/31 06:55:29;;;;;;;7.03;1.33;;;12.60;83.80;;;;;;4987689;28;20049;-82
2021/10/31 06:57:55;;;;;;;6.10;1.27;;;12.70;84.10;;;;;;4988152;28;20037;-82
2021/10/31 07:00:22;;;;;;;4.63;1.00;;;12.70;84.10;;;;;;4987863;28;20061;-84
2021/10/31 07:02:48;;;;;;;3.75;0.77;;;12.60;84.00;;;;;;4986956;28;20506;-84
2021/10/31 07:05:14;;;;;;;7.70;1.60;;;12.70;84.20;;;;;;5001718;28;20041;-80
2021/10/31 07:07:40;;;;;;;4.47;0.90;;;12.70;84.20;;;;;;4987748;28;20557;-84
2021/10/31 07:10:06;;;;;;;4.00;1.25;;;12.70;84.20;;;;;;4993924;28;20125;-82
2021/10/31 07:12:32;;;;;;;6.80;2.05;;;12.70;84.30;;;;;;5006768;28;20423;-86
2021/10/31 07:14:59;;;;;;;7.63;2.83;;;12.70;84.40;;;;;;4997338;28;20037;-83
2021/10/31 07:17:25;;;;;;;8.10;2.17;;;12.70;84.60;;;;;;4995113;28;20390;-85
2021/10/31 07:19:51;;;;;;;6.75;2.30;;;12.80;84.80;;;;;;4997838;28;20045;-82
2021/10/31 07:22:19;;;;;;;6.35;2.60;;;12.80;84.90;;;;;;5004543;28;20057;-83
2021/10/31 07:24:49;;;;;;;9.55;2.85;;;12.80;85.10;;;;;;5004826;28;20087;-83
2021/10/31 07:27:16;;;;;;;8.98;2.53;;;12.90;85.50;;;;;;5005987;28;20444;-84
2021/10/31 07:29:42;;;;;;;9.50;3.85;;;12.90;85.50;;;;;;5005224;28;20232;-87
2021/10/31 07:32:08;;;;;;;12.38;3.90;;;13.00;85.90;;;;;;5003436;28;20031;-87
2021/10/31 07:34:34;;;;;;;8.57;4.85;;;13.10;86.40;;;;;;5009030;28;20081;-87
2021/10/31 07:37:00;;;;;;;10.55;3.97;;;13.20;86.70;;;;;;5009619;28;20065;-88
2021/10/31 07:39:28;;;;;;;9.55;3.90;;;13.30;87.00;;;;;;4989749;28;20482;-85
2021/10/31 07:41:55;;;;;;;8.65;3.53;;;13.40;87.20;;;;;;4987573;28;20038;-83
2021/10/31 07:44:21;;;;;;;7.60;4.78;;;13.60;87.60;;;;;;4988180;28;20031;-79
2021/10/31 07:46:47;;;;;;;8.90;4.43;;;13.70;87.80;;;;;;4988003;28;20041;-79
2021/10/31 07:49:13;;;;;;;10.73;4.22;;;13.80;87.80;;;;;;4985241;28;20046;-79
2021/10/31 07:51:39;;;;;;;7.22;3.58;;;13.90;88.00;;;;;;4986894;28;20022;-81
2021/10/31 07:54:05;;;;;;;10.45;4.65;;;14.00;88.30;;;;;;5002885;28;20034;-81
2021/10/31 07:56:35;;;;;;;11.18;3.67;;;14.10;88.50;;;;;;4988006;28;20030;-84
2021/10/31 07:59:01;;;;;;;8.57;3.35;;;14.10;88.50;;;;;;4987456;28;20034;-86
2021/10/31 08:01:27;;;;;;;9.32;3.17;;;14.20;88.60;;;;;;4986997;28;20452;-83
2021/10/31 08:03:54;;;;;;;6.50;3.17;;;14.30;88.70;;;;;;5004209;28;20038;-84
2021/10/31 08:06:23;;;;;;;10.10;3.15;;;14.30;88.60;;;;;;5008213;28;20436;-83
2021/10/31 08:08:49;;;;;;;7.68;2.88;;;14.30;88.50;;;;;;5001120;28;20037;-81
2021/10/31 08:11:15;;;;;;;5.45;2.83;;;14.30;88.40;;;;;;5006520;28;20107;-81
2021/10/31 08:13:41;;;;;;;6.78;2.80;;;14.30;88.40;;;;;;4990438;28;20093;-83
2021/10/31 08:16:08;;;;;;;7.28;2.83;;;14.20;88.10;;;;;;4987877;28;20040;-81
2021/10/31 08:18:34;;;;;;;6.35;2.80;;;14.20;88.10;;;;;;4985269;28;20141;-84
2021/10/31 08:20:59;;;;;;;5.85;2.75;;;14.10;87.80;;;;;;4986007;28;20109;-82
2021/10/31 08:23:26;;;;;;;7.22;2.70;;;14.10;87.80;;;;;;4998787;28;20119;-81
2021/10/31 08:25:53;;;;;;;5.63;2.45;;;14.10;87.70;;;;;;5005486;28;20072;-81
2021/10/31 08:28:20;;;;;;;4.05;2.00;;;14.00;87.40;;;;;;4996709;28;20038;-82
2021/10/31 08:30:56;;;;;;;5.35;1.83;;;14.00;87.40;;;;;;4986193;28;20034;-81
2021/10/31 08:33:25;;;;;;;2.58;1.63;;;13.90;87.60;;;;;;4997666;28;20431;-83
2021/10/31 08:35:52;;;;;;;7.10;2.03;;;13.90;87.10;;;;;;5005759;28;20030;-81
2021/10/31 08:38:18;;;;;;;6.35;2.60;;;13.80;86.80;;;;;;5005668;28;20034;-83
2021/10/31 08:40:48;;;;;;;4.43;2.10;;;13.80;86.80;;;;;;5005779;28;20493;-78
2021/10/31 08:43:14;;;;;;;5.13;2.25;;;13.80;86.70;;;;;;4993196;28;20497;-82
2021/10/31 08:45:41;;;;;;;3.80;1.67;;;13.70;86.50;;;;;;4986311;28;20030;-82
2021/10/31 08:48:08;;;;;;;4.00;1.30;;;13.70;86.40;;;;;;5000639;28;20042;-82
2021/10/31 08:50:35;;;;;;;4.88;2.42;;;13.70;86.40;;;;;;4986087;28;20128;-81
2021/10/31 08:53:04;;;;;;;4.35;1.63;;;13.70;86.30;;;;;;4996460;28;20112;-81
2021/10/31 08:55:31;;;;;;;4.05;1.55;;;13.70;86.20;;;;;;5007335;28;20115;-81
2021/10/31 08:57:57;;;;;;;2.00;1.10;;;13.70;86.10;;;;;;5002078;28;20062;-80
2021/10/31 09:00:24;;;;;;;4.78;2.13;;;13.70;86.10;;;;;;4986412;28;20096;-81
2021/10/31 09:02:50;;;;;;;4.57;2.33;;;13.70;86.00;;;;;;4992930;28;20034;-78
2021/10/31 09:05:16;;;;;;;2.42;1.17;;;13.70;85.90;;;;;;5006162;28;20040;-80
2021/10/31 09:07:42;;;;;;;2.95;1.17;;;13.70;85.80;;;;;;5002807;28;20040;-79
2021/10/31 09:10:09;;;;;;;2.83;1.42;;;13.80;85.90;;;;;;4986423;28;20109;-80
2021/10/31 09:12:35;;;;;;;3.03;1.40;;;13.80;85.80;;;;;;4996952;28;20541;-80
2021/10/31 09:15:01;;;;;;;3.25;1.00;;;13.80;85.60;;;;;;4986643;28;20034;-76
2021/10/31 09:17:27;;;;;;;2.40;1.00;;;13.90;85.70;;;;;;4986419;28;20034;-79
2021/10/31 09:19:53;;;;;;;2.05;0.90;;;13.90;85.60;;;;;;4967523;28;20094;-78
2021/10/31 09:22:20;;;;;;;1.48;0.90;;;13.90;85.40;;;;;;4984985;28;20038;-80
2021/10/31 09:24:46;;;;;;;3.33;0.95;;;14.00;85.50;;;;;;4989214;28;20049;-79
2021/10/31 09:27:12;;;;;;;0.82;0.63;;;14.00;85.20;;;;;;4988900;28;20040;-80
2021/10/31 09:29:37;;;;;;;1.25;0.90;;;14.10;85.20;;;;;;5007240;28;20042;-78
2021/10/31 09:32:04;;;;;;;1.63;0.73;;;14.00;84.90;;;;;;5008855;28;20057;-81
2021/10/31 09:34:30;;;;;;;1.63;0.80;;;14.00;84.80;;;;;;4990292;28;20593;-81
2021/10/31 09:36:57;;;;;;;1.70;0.70;;;14.10;84.90;;;;;;4990420;28;20434;-78
2021/10/31 09:39:23;;;;;;;4.75;1.30;;;14.00;84.70;;;;;;4989851;28;20673;-79
2021/10/31 09:41:50;;;;;;;1.83;0.77;;;14.00;84.60;;;;;;4990324;28;20030;-78
2021/10/31 09:44:48;;;;;;;2.38;1.00;;;14.00;84.60;;;;;;4990149;28;20445;-77
2021/10/31 09:47:13;;;;;;;2.53;0.77;;;14.10;84.70;;;;;;4990387;28;20204;-77
2021/10/31 09:49:40;;;;;;;1.73;0.68;;;14.10;84.60;;;;;;4990075;28;20573;-79
2021/10/31 09:52:07;;;;;;;2.65;0.98;;;14.10;84.50;;;;;;4990789;28;20085;-79
2021/10/31 09:54:33;;;;;;;2.63;1.15;;;14.20;84.50;;;;;;5009748;28;20148;-79
2021/10/31 09:56:59;;;;;;;3.15;1.08;;;14.20;84.40;;;;;;5010054;28;20030;-78
2021/10/31 09:59:27;;;;;;;3.38;0.80;;;14.30;84.50;;;;;;4992729;28;20046;-77
2021/10/31 10:04:49;;;;;;;2.03;0.52;;;14.40;84.30;;;;;;4997583;28;20037;-80
2021/10/31 10:07:16;;;;;;;2.35;0.60;;;14.40;84.20;;;;;;4988516;28;20448;-81
2021/10/31 10:09:51;;;;;;;2.88;0.60;;;14.50;84.20;;;;;;5004103;28;20069;-82
2021/10/31 10:12:19;;;;;;;3.10;0.75;;;14.60;84.20;;;;;;4997420;28;20036;-80
2021/10/31 10:15:06;;;;;;;1.75;0.77;;;14.60;84.10;;;;;;5010066;28;20042;-82
2021/10/31 10:17:51;;;;;;;5.15;0.80;;;14.70;83.90;;;;;;5000981;28;20041;-79
2021/10/31 10:20:19;;;;;;;1.80;0.82;;;14.80;83.90;;;;;;4974751;28;20018;-80
2021/10/31 10:22:46;;;;;;;4.40;1.38;;;14.80;83.70;;;;;;4999197;28;20198;-78
2021/10/31 10:25:13;;;;;;;5.95;1.67;;;14.90;83.70;;;;;;5008113;28;20053;-77
2021/10/31 10:28:21;;;;;;;3.90;1.00;;;14.90;83.60;;;;;;5008046;28;20026;-79
2021/10/31 10:30:47;;;;;;;3.83;1.35;;;15.00;83.50;;;;;;4970487;28;20121;-80
2021/10/31 10:33:19;;;;;;;6.35;2.30;;;15.00;83.40;;;;;;4995832;28;20378;-80
2021/10/31 10:35:47;;;;;;;6.78;1.75;;;15.00;83.10;;;;;;4988394;28;20779;-81
2021/10/31 10:38:17;;;;;;;5.32;1.73;;;15.10;83.10;;;;;;4989124;28;20072;-80
2021/10/31 10:40:43;;;;;;;4.57;1.15;;;15.10;82.90;;;;;;4991654;28;20031;-80
2021/10/31 10:43:09;;;;;;;6.20;1.35;;;15.20;82.80;;;;;;4990130;28;20026;-79
2021/10/31 10:45:38;;;;;;;5.95;1.38;;;15.20;82.60;;;;;;4988977;28;20064;-78
2021/10/31 10:48:08;;;;;;;7.05;1.67;;;15.20;82.50;;;;;;4989107;28;20077;-79
2021/10/31 10:50:42;;;;;;;4.78;1.35;;;15.30;82.50;;;;;;4991535;28;20030;-78
2021/10/31 10:53:19;;;;;;;4.68;1.35;;;15.30;82.20;;;;;;4997879;28;20026;-77
2021/10/31 10:55:46;;;;;;;4.03;1.42;;;15.40;82.10;;;;;;5002666;28;20069;-78
2021/10/31 10:58:17;;;;;;;6.63;1.42;;;15.40;82.00;;;;;;5003438;28;20127;-77
2021/10/31 11:00:51;;;;;;;9.90;2.30;;;15.40;81.80;;;;;;5002757;28;20030;-77
2021/10/31 11:03:29;;;;;;;6.97;1.95;;;15.40;81.70;;;;;;4993563;28;20104;-78
2021/10/31 11:06:04;;;;;;;11.52;3.63;;;15.40;81.50;;;;;;5005743;28;20385;-78
2021/10/31 11:08:30;;;;;;;8.20;2.80;;;15.50;81.50;;;;;;4991216;28;20184;-87
2021/10/31 11:11:00;;;;;;;8.82;2.72;;;15.50;81.50;;;;;;4990102;28;20034;-80
2021/10/31 11:13:31;;;;;;;11.07;2.60;;;15.50;81.40;;;;;;5021502;28;20036;-78
2021/10/31 11:16:00;;;;;;;10.80;3.22;;;15.60;81.40;;;;;;5035302;28;20292;-77
2021/10/31 11:18:26;;;;;;;8.63;2.63;;;15.70;81.20;;;;;;5003142;28;20571;-78
2021/10/31 11:20:52;;;;;;;8.70;2.03;;;15.70;81.00;;;;;;5003290;28;20081;-76
2021/10/31 11:23:21;;;;;;;11.63;3.80;;;15.80;81.00;;;;;;4999296;28;20378;-78
2021/10/31 11:25:49;;;;;;;5.78;2.17;;;15.80;80.70;;;;;;5001104;28;20026;-78
2021/10/31 11:28:18;;;;;;;4.47;1.77;;;15.90;80.60;;;;;;5005459;28;20042;-79
2021/10/31 11:30:46;;;;;;;10.32;1.88;;;16.00;80.50;;;;;;5020657;28;20507;-78
2021/10/31 11:33:13;;;;;;;10.95;2.22;;;16.00;80.20;;;;;;5010285;28;20045;-79
2021/10/31 11:35:40;;;;;;;11.40;2.00;;;16.10;80.10;;;;;;4996360;28;20248;-80
2021/10/31 11:38:18;;;;;;;8.98;3.55;;;16.10;79.70;;;;;;5003297;28;20062;-82
2021/10/31 11:41:07;;;;;;;6.32;2.28;;;16.10;79.10;;;;;;5013238;28;20033;-80
2021/10/31 11:43:34;;;;;;;9.65;1.92;;;16.10;78.80;;;;;;5003226;28;20052;-82
2021/10/31 11:46:02;;;;;;;5.78;2.22;;;16.00;78.50;;;;;;4998939;28;20033;-81
2021/10/31 11:48:30;;;;;;;5.78;2.80;;;16.00;78.20;;;;;;4999988;28;20050;-81
2021/10/31 11:50:59;;;;;;;7.28;1.85;;;15.90;77.80;;;;;;5005949;28;20035;-77
2021/10/31 11:53:33;;;;;;;6.38;3.70;;;15.90;77.60;;;;;;5011923;28;20038;-78
2021/10/31 11:56:06;;;;;;;7.97;2.20;;;15.90;77.50;;;;;;5015857;28;20030;-79
2021/10/31 11:58:41;;;;;;;8.48;1.70;;;16.00;77.50;;;;;;4990479;28;20468;-79
2021/10/31 12:01:37;;;;;;;7.78;1.90;;;16.00;77.20;;;;;;5025479;28;20072;-78
2021/10/31 12:04:07;;;;;;;5.82;2.25;;;16.00;76.60;;;;;;5008660;28;20101;-77
2021/10/31 12:06:51;;;;;;;7.53;2.25;;;16.10;76.70;;;;;;5009343;28;20030;-79
2021/10/31 12:09:20;;;;;;;9.27;4.35;;;16.10;76.30;;;;;;5025109;28;20065;-79
2021/10/31 12:11:47;;;;;;;7.20;3.05;;;16.20;77.30;;;;;;5029847;28;20887;-77
2021/10/31 12:14:14;;;;;;;5.20;2.47;;;16.30;76.90;;;;;;5007989;28;20437;-81
2021/10/31 12:16:53;;;;;;;8.90;3.15;;;16.40;76.90;;;;;;5000277;28;20033;-82
2021/10/31 12:19:39;;;;;;;4.80;2.33;;;16.50;76.70;;;;;;4998842;28;20027;-76
2021/10/31 12:22:16;;;;;;;7.63;2.60;;;16.50;76.50;;;;;;4993711;28;20066;-78
2021/10/31 12:24:49;;;;;;;7.63;3.22;;;16.50;76.50;;;;;;5015403;28;20038;-78
2021/10/31 12:27:18;;;;;;;4.65;2.00;;;16.50;76.30;;;;;;5017356;28;20254;-81
2021/10/31 12:29:53;;;;;;;5.80;2.42;;;16.50;76.20;;;;;;5017117;28;20046;-79
2021/10/31 12:32:40;;;;;;;5.22;1.83;;;16.50;76.00;;;;;;4990324;28;20030;-79
2021/10/31 12:35:29;;;;;;;6.53;2.53;;;16.50;75.80;;;;;;4992040;28;20177;-79
2021/10/31 12:38:22;;;;;;;7.30;2.72;;;16.50;75.70;;;;;;5008138;28;20030;-79
2021/10/31 12:41:05;;;;;;;6.10;2.42;;;16.50;75.60;;;;;;4978392;28;20046;-80
2021/10/31 12:43:39;;;;;;;6.03;2.33;;;16.60;75.70;;;;;;4996932;28;20102;-78
2021/10/31 12:46:16;;;;;;;6.40;2.03;;;16.70;75.80;;;;;;5003111;28;20034;-78
2021/10/31 12:48:42;;;;;;;4.03;2.10;;;16.70;75.50;;;;;;5016044;28;20511;-79
2021/10/31 12:51:17;;;;;;;6.85;2.58;;;16.70;75.40;;;;;;5025863;28;20038;-78
2021/10/31 12:53:48;;;;;;;5.35;2.13;;;16.70;75.30;;;;;;5004778;28;20027;-79
2021/10/31 12:56:15;;;;;;;6.95;1.88;;;16.80;75.50;;;;;;4999510;28;20033;-80
2021/10/31 12:58:41;;;;;;;3.80;1.52;;;16.80;75.30;;;;;;4994663;28;20482;-79
2021/10/31 13:01:07;;;;;;;6.45;2.40;;;16.80;75.10;;;;;;4998043;28;20101;-77